Time;durP1;ratioP1;P1;durP2;ratioP2;P2;SDS_P1;SDS_P2;PMS_P1;PMS_P2;Temp;Humidity;BMP_temperature;BMP_pressure;BME280_temperature;BME280_humidity;BME280_pressure;Samples;Min_cycle;Max_cycle;Signal;HPM_P1;HPM_P2
2020/12/17 00:00:57;;;;;;;14.93;13.18;;;;;;;;;;5114422;28;20582;-63
2020/12/17 00:03:24;;;;;;;15.45;13.57;;;;;;;;;;5114048;28;20210;-62
2020/12/17 00:05:50;;;;;;;16.33;14.15;;;;;;;;;;5113858;28;20211;-62
2020/12/17 00:08:18;;;;;;;16.67;14.35;;;;;;;;;;5114093;28;20272;-63
2020/12/17 00:10:46;;;;;;;16.40;13.40;;;;;;;;;;5113924;28;20224;-61
2020/12/17 00:13:13;;;;;;;18.90;13.93;;;;;;;;;;5113778;28;20199;-63
2020/12/17 00:15:39;;;;;;;19.30;15.50;;;;;;;;;;5113735;28;20732;-63
2020/12/17 00:18:06;;;;;;;16.25;13.18;;;;;;;;;;5113600;28;20565;-62
2020/12/17 00:20:33;;;;;;;16.83;14.43;;;;;;;;;;5113634;28;20226;-62
2020/12/17 00:23:00;;;;;;;19.90;14.60;;;;;;;;;;5115842;28;20199;-62
2020/12/17 00:25:26;;;;;;;18.10;14.00;;;;;;;;;;5118438;28;20203;-62
2020/12/17 00:27:54;;;;;;;18.52;14.60;;;;;;;;;;5118051;27;20230;-62
2020/12/17 00:30:21;;;;;;;16.25;13.88;;;;;;;;;;5117846;28;20219;-63
2020/12/17 00:32:48;;;;;;;20.88;14.98;;;;;;;;;;5118108;28;20199;-63
2020/12/17 00:35:15;;;;;;;18.25;15.00;;;;;;;;;;5117799;28;20208;-62
2020/12/17 00:37:42;;;;;;;16.83;14.30;;;;;;;;;;5117761;27;20195;-62
2020/12/17 00:40:10;;;;;;;18.33;14.43;;;;;;;;;;5117705;28;20568;-62
2020/12/17 00:42:38;;;;;;;17.95;14.98;;;;;;;;;;5117838;27;20200;-62
2020/12/17 00:45:06;;;;;;;18.35;15.02;;;;;;;;;;5117632;27;20742;-62
2020/12/17 00:47:32;;;;;;;20.25;15.18;;;;;;;;;;5117658;28;20215;-62
2020/12/17 00:49:59;;;;;;;21.98;16.30;;;;;;;;;;5117748;28;20224;-62
2020/12/17 00:52:26;;;;;;;19.13;15.30;;;;;;;;;;5117948;28;20204;-62
2020/12/17 00:54:53;;;;;;;19.02;14.10;;;;;;;;;;5118438;28;20256;-63
2020/12/17 00:57:26;;;;;;;20.23;16.05;;;;;;;;;;5117521;28;20719;-62
2020/12/17 00:59:53;;;;;;;20.33;15.13;;;;;;;;;;5117539;28;20188;-62
2020/12/17 01:02:20;;;;;;;17.95;16.00;;;;;;;;;;5117162;28;20195;-62
2020/12/17 01:04:47;;;;;;;17.30;14.40;;;;;;;;;;5117441;28;20254;-62
2020/12/17 01:07:14;;;;;;;19.90;15.18;;;;;;;;;;5116927;28;20220;-62
2020/12/17 01:09:41;;;;;;;19.27;15.02;;;;;;;;;;5117060;28;20671;-60
2020/12/17 01:12:08;;;;;;;17.02;13.43;;;;;;;;;;5117143;28;20203;-63
2020/12/17 01:14:35;;;;;;;18.35;14.85;;;;;;;;;;5117401;28;20226;-62
2020/12/17 01:17:02;;;;;;;21.73;15.70;;;;;;;;;;5117243;28;20252;-62
2020/12/17 01:19:31;;;;;;;20.10;15.40;;;;;;;;;;5117688;28;20192;-62
2020/12/17 01:21:58;;;;;;;23.63;15.13;;;;;;;;;;5118409;27;20711;-63
2020/12/17 01:24:25;;;;;;;18.00;15.05;;;;;;;;;;5121124;28;20286;-62
2020/12/17 01:26:53;;;;;;;20.25;16.05;;;;;;;;;;5120764;28;20203;-63
2020/12/17 01:29:19;;;;;;;18.92;14.70;;;;;;;;;;5116458;28;20219;-61
2020/12/17 01:31:46;;;;;;;20.42;14.52;;;;;;;;;;5117629;28;20220;-61
2020/12/17 01:34:13;;;;;;;18.92;14.50;;;;;;;;;;5117688;28;20256;-62
2020/12/17 01:36:41;;;;;;;18.80;14.38;;;;;;;;;;5117510;28;20200;-62
2020/12/17 01:39:07;;;;;;;19.88;15.02;;;;;;;;;;5118306;28;20199;-61
2020/12/17 01:41:34;;;;;;;23.02;14.70;;;;;;;;;;5120520;28;20246;-61
2020/12/17 01:44:01;;;;;;;18.40;15.50;;;;;;;;;;5122523;28;20203;-61
2020/12/17 01:46:28;;;;;;;21.13;14.93;;;;;;;;;;5121835;28;20604;-61
2020/12/17 01:48:55;;;;;;;18.45;14.02;;;;;;;;;;5121423;28;20219;-62
2020/12/17 01:51:22;;;;;;;19.92;14.70;;;;;;;;;;5120456;28;20706;-62
2020/12/17 01:53:52;;;;;;;17.20;15.00;;;;;;;;;;5120637;28;20222;-62
2020/12/17 01:56:22;;;;;;;20.45;14.93;;;;;;;;;;5117724;28;20184;-62
2020/12/17 01:58:53;;;;;;;18.67;15.35;;;;;;;;;;5116435;28;20192;-62
2020/12/17 02:01:24;;;;;;;18.05;14.52;;;;;;;;;;5116359;28;20226;-62
2020/12/17 02:03:51;;;;;;;20.15;14.82;;;;;;;;;;5116465;28;20718;-62
2020/12/17 02:06:18;;;;;;;20.13;14.60;;;;;;;;;;5117025;28;20212;-61
2020/12/17 02:08:45;;;;;;;19.65;14.48;;;;;;;;;;5116635;28;20223;-62
2020/12/17 02:11:12;;;;;;;20.80;15.30;;;;;;;;;;5116346;28;20703;-62
2020/12/17 02:13:39;;;;;;;19.10;15.32;;;;;;;;;;5117533;28;20222;-62
2020/12/17 02:16:06;;;;;;;17.70;14.30;;;;;;;;;;5118493;28;20659;-61
2020/12/17 02:18:33;;;;;;;18.17;15.07;;;;;;;;;;5119268;28;20570;-61
2020/12/17 02:21:00;;;;;;;19.17;15.25;;;;;;;;;;5117563;27;20779;-62
2020/12/17 02:23:27;;;;;;;20.50;13.90;;;;;;;;;;5117439;28;20203;-63
2020/12/17 02:25:55;;;;;;;19.08;15.68;;;;;;;;;;5116389;28;20206;-62
2020/12/17 02:28:22;;;;;;;24.13;16.02;;;;;;;;;;5115795;28;20227;-63
2020/12/17 02:30:49;;;;;;;20.50;17.02;;;;;;;;;;5115957;28;20246;-62
2020/12/17 02:33:16;;;;;;;19.77;15.50;;;;;;;;;;5115954;28;20203;-63
2020/12/17 02:35:43;;;;;;;22.67;16.27;;;;;;;;;;5116001;28;20199;-62
2020/12/17 02:38:09;;;;;;;22.88;16.50;;;;;;;;;;5116419;28;20192;-61
2020/12/17 02:40:36;;;;;;;21.65;15.85;;;;;;;;;;5115672;28;20224;-63
2020/12/17 02:43:04;;;;;;;20.00;15.40;;;;;;;;;;5115288;28;20671;-62
2020/12/17 02:45:31;;;;;;;21.80;15.68;;;;;;;;;;5114899;28;20683;-61
2020/12/17 02:47:58;;;;;;;20.50;15.35;;;;;;;;;;5115034;28;20641;-60
2020/12/17 02:50:24;;;;;;;21.50;14.48;;;;;;;;;;5116239;28;20231;-62
2020/12/17 02:52:51;;;;;;;17.88;15.20;;;;;;;;;;5116336;28;20204;-62
2020/12/17 02:55:18;;;;;;;18.40;14.70;;;;;;;;;;5115757;28;20203;-61
2020/12/17 02:57:46;;;;;;;17.25;14.40;;;;;;;;;;5115534;28;20244;-62
2020/12/17 03:00:13;;;;;;;19.70;14.73;;;;;;;;;;5115499;28;20227;-61
2020/12/17 03:02:40;;;;;;;19.65;16.10;;;;;;;;;;5116584;28;20249;-63
2020/12/17 03:05:07;;;;;;;17.20;13.82;;;;;;;;;;5115028;28;20252;-62
2020/12/17 03:07:34;;;;;;;20.58;15.80;;;;;;;;;;5114947;28;20180;-61
2020/12/17 03:10:00;;;;;;;18.50;14.70;;;;;;;;;;5115267;28;20221;-61
2020/12/17 03:12:27;;;;;;;19.58;15.35;;;;;;;;;;5115128;28;20199;-61
2020/12/17 03:14:54;;;;;;;20.02;14.95;;;;;;;;;;5115283;28;20617;-62
2020/12/17 03:17:21;;;;;;;20.20;14.93;;;;;;;;;;5115015;28;20668;-62
2020/12/17 03:19:48;;;;;;;17.88;14.80;;;;;;;;;;5114996;28;20249;-63
2020/12/17 03:22:15;;;;;;;20.23;15.45;;;;;;;;;;5115003;28;20204;-60
2020/12/17 03:24:42;;;;;;;19.52;14.40;;;;;;;;;;5115014;27;20200;-62
2020/12/17 03:27:08;;;;;;;19.42;15.13;;;;;;;;;;5114777;28;20204;-62
2020/12/17 03:29:35;;;;;;;19.88;14.63;;;;;;;;;;5114640;28;20220;-62
2020/12/17 03:32:02;;;;;;;18.55;14.40;;;;;;;;;;5114294;28;20602;-63
2020/12/17 03:34:30;;;;;;;19.70;15.02;;;;;;;;;;5114321;28;20203;-62
2020/12/17 03:36:57;;;;;;;22.92;16.02;;;;;;;;;;5114608;28;20208;-62
2020/12/17 03:39:23;;;;;;;20.33;16.02;;;;;;;;;;5114614;28;20196;-62
2020/12/17 03:41:50;;;;;;;21.08;15.10;;;;;;;;;;5114373;28;20277;-62
2020/12/17 03:44:17;;;;;;;17.75;14.00;;;;;;;;;;5114515;28;20273;-63
2020/12/17 03:46:43;;;;;;;18.17;13.93;;;;;;;;;;5114313;28;20616;-62
2020/12/17 03:49:10;;;;;;;18.85;14.65;;;;;;;;;;5113999;28;20261;-62
2020/12/17 03:51:38;;;;;;;23.52;15.90;;;;;;;;;;5113979;28;20219;-62
2020/12/17 03:54:05;;;;;;;17.08;13.80;;;;;;;;;;5114337;27;20208;-63
2020/12/17 03:56:32;;;;;;;19.63;14.82;;;;;;;;;;5114191;28;20253;-62
2020/12/17 03:58:58;;;;;;;17.27;13.93;;;;;;;;;;5113797;28;20200;-61
2020/12/17 04:01:25;;;;;;;16.98;12.85;;;;;;;;;;5114522;28;20637;-62
2020/12/17 04:03:52;;;;;;;18.38;14.93;;;;;;;;;;5114773;28;20245;-61
2020/12/17 04:07:28;;;;;;;20.95;14.10;;;;;;;;;;5112804;27;20606;-60
2020/12/17 04:09:55;;;;;;;18.40;14.48;;;;;;;;;;5112093;28;20207;-62
2020/12/17 04:12:21;;;;;;;17.88;12.63;;;;;;;;;;5111864;28;20687;-62
2020/12/17 04:14:48;;;;;;;17.98;13.23;;;;;;;;;;5111811;28;20253;-61
2020/12/17 04:17:15;;;;;;;18.35;14.75;;;;;;;;;;5112083;28;20203;-61
2020/12/17 04:19:42;;;;;;;15.93;13.45;;;;;;;;;;5112871;28;20195;-62
2020/12/17 04:22:16;;;;;;;16.52;12.88;;;;;;;;;;5110879;28;20676;-62
2020/12/17 04:24:43;;;;;;;16.38;13.85;;;;;;;;;;5110870;28;20195;-63
2020/12/17 04:27:10;;;;;;;21.60;14.35;;;;;;;;;;5111217;28;20280;-62
2020/12/17 04:29:37;;;;;;;17.20;13.40;;;;;;;;;;5113136;28;20199;-61
2020/12/17 04:32:04;;;;;;;15.32;12.90;;;;;;;;;;5112505;28;20199;-61
2020/12/17 04:34:31;;;;;;;19.15;13.02;;;;;;;;;;5111698;28;20204;-62
2020/12/17 04:36:57;;;;;;;16.30;13.15;;;;;;;;;;5111182;28;20323;-62
2020/12/17 04:39:24;;;;;;;17.58;13.70;;;;;;;;;;5111640;28;20199;-62
2020/12/17 04:41:53;;;;;;;16.63;13.90;;;;;;;;;;5112048;28;20219;-61
2020/12/17 04:44:20;;;;;;;17.95;13.88;;;;;;;;;;5112104;28;20200;-61
2020/12/17 04:46:50;;;;;;;17.27;13.32;;;;;;;;;;5110991;28;20269;-61
2020/12/17 04:49:19;;;;;;;16.90;12.80;;;;;;;;;;5110905;28;20192;-62
2020/12/17 04:51:48;;;;;;;16.95;13.10;;;;;;;;;;5110827;28;20227;-61
2020/12/17 04:54:16;;;;;;;14.70;12.68;;;;;;;;;;5110324;28;20575;-62
2020/12/17 04:56:43;;;;;;;17.08;12.57;;;;;;;;;;5110235;28;20214;-62
2020/12/17 04:59:10;;;;;;;17.75;13.40;;;;;;;;;;5110474;28;20294;-62
2020/12/17 05:01:39;;;;;;;17.20;13.18;;;;;;;;;;5110106;28;20219;-62
2020/12/17 05:04:06;;;;;;;15.80;12.68;;;;;;;;;;5110352;28;20207;-61
2020/12/17 05:06:33;;;;;;;17.33;13.38;;;;;;;;;;5109866;28;20339;-61
2020/12/17 05:09:00;;;;;;;18.25;13.00;;;;;;;;;;5110199;28;20241;-61
2020/12/17 05:11:26;;;;;;;16.45;13.20;;;;;;;;;;5110245;28;20269;-62
2020/12/17 05:13:55;;;;;;;15.80;11.90;;;;;;;;;;5109870;28;20543;-61
2020/12/17 05:16:22;;;;;;;15.10;12.35;;;;;;;;;;5110047;28;20269;-61
2020/12/17 05:18:49;;;;;;;16.13;12.48;;;;;;;;;;5096456;28;20200;-61
2020/12/17 05:21:16;;;;;;;15.25;12.95;;;;;;;;;;5097200;28;20221;-61
2020/12/17 05:23:44;;;;;;;16.02;12.40;;;;;;;;;;5096964;28;20212;-61
2020/12/17 05:26:11;;;;;;;16.73;11.75;;;;;;;;;;5096827;28;20307;-61
2020/12/17 05:28:38;;;;;;;13.07;11.70;;;;;;;;;;5096680;28;20200;-62
2020/12/17 05:31:05;;;;;;;15.82;12.60;;;;;;;;;;5096104;28;20227;-59
2020/12/17 05:33:34;;;;;;;15.32;12.23;;;;;;;;;;5096704;28;20196;-60
2020/12/17 05:36:01;;;;;;;15.05;12.23;;;;;;;;;;5096369;28;20208;-62
2020/12/17 05:38:28;;;;;;;14.48;12.60;;;;;;;;;;5096511;28;20602;-62
2020/12/17 05:40:55;;;;;;;16.23;12.05;;;;;;;;;;5096563;28;20224;-61
2020/12/17 05:43:22;;;;;;;13.80;11.95;;;;;;;;;;5096138;28;20208;-62
2020/12/17 05:45:49;;;;;;;14.88;10.20;;;;;;;;;;5095905;28;20562;-62
2020/12/17 05:48:17;;;;;;;16.05;11.70;;;;;;;;;;5095791;28;20552;-62
2020/12/17 05:50:54;;;;;;;16.70;12.90;;;;;;;;;;5095779;28;20220;-61
2020/12/17 05:53:21;;;;;;;13.45;11.50;;;;;;;;;;5096041;28;20199;-60
2020/12/17 05:55:49;;;;;;;14.30;11.10;;;;;;;;;;5096572;28;20210;-62
2020/12/17 05:58:16;;;;;;;15.52;12.30;;;;;;;;;;5096112;28;20204;-61
2020/12/17 06:00:42;;;;;;;13.93;10.50;;;;;;;;;;5095702;28;20586;-61
2020/12/17 06:03:12;;;;;;;13.80;11.68;;;;;;;;;;5095860;28;20223;-62
2020/12/17 06:05:48;;;;;;;14.90;12.10;;;;;;;;;;5095327;28;20221;-61
2020/12/17 06:08:23;;;;;;;13.30;11.88;;;;;;;;;;5095594;28;20628;-61
2020/12/17 06:10:49;;;;;;;12.88;11.25;;;;;;;;;;5095779;28;20216;-61
2020/12/17 06:13:16;;;;;;;12.55;11.23;;;;;;;;;;5095173;28;20718;-61
2020/12/17 06:15:45;;;;;;;14.13;11.38;;;;;;;;;;5095946;28;20203;-61
2020/12/17 06:18:13;;;;;;;13.45;11.95;;;;;;;;;;5096711;28;20708;-61
2020/12/17 06:20:42;;;;;;;14.32;11.60;;;;;;;;;;5095340;28;20235;-62
2020/12/17 06:23:12;;;;;;;14.82;11.20;;;;;;;;;;5095406;28;20204;-62
2020/12/17 06:25:39;;;;;;;13.50;10.75;;;;;;;;;;5095334;28;20246;-61
2020/12/17 06:28:14;;;;;;;13.15;11.65;;;;;;;;;;5094964;28;20287;-61
2020/12/17 06:30:42;;;;;;;13.38;10.90;;;;;;;;;;5096660;28;20353;-60
2020/12/17 06:33:09;;;;;;;14.70;11.50;;;;;;;;;;5102196;28;20206;-61
2020/12/17 06:35:42;;;;;;;15.57;11.60;;;;;;;;;;5096925;28;20200;-60
2020/12/17 06:38:10;;;;;;;20.20;13.20;;;;;;;;;;5097106;28;20180;-61
2020/12/17 06:40:37;;;;;;;14.52;11.85;;;;;;;;;;5096431;28;20220;-60
2020/12/17 06:43:11;;;;;;;13.60;11.10;;;;;;;;;;5095985;28;20238;-60
2020/12/17 06:45:38;;;;;;;17.33;11.68;;;;;;;;;;5096386;28;20668;-59
2020/12/17 06:48:28;;;;;;;15.98;11.95;;;;;;;;;;5096622;28;20208;-61
2020/12/17 06:50:55;;;;;;;14.02;11.10;;;;;;;;;;5096758;28;20307;-60
2020/12/17 06:53:36;;;;;;;15.60;12.07;;;;;;;;;;5096045;28;20201;-61
2020/12/17 06:56:03;;;;;;;13.60;10.80;;;;;;;;;;5097073;28;20190;-60
2020/12/17 06:58:31;;;;;;;14.45;11.18;;;;;;;;;;5096352;28;20256;-61
2020/12/17 07:00:58;;;;;;;13.45;10.88;;;;;;;;;;5096085;28;20228;-60
2020/12/17 07:03:43;;;;;;;14.32;11.50;;;;;;;;;;5096227;28;20253;-60
2020/12/17 07:06:17;;;;;;;14.52;11.13;;;;;;;;;;5095832;28;20220;-60
2020/12/17 07:08:44;;;;;;;14.10;11.27;;;;;;;;;;5094994;28;20196;-61
2020/12/17 07:11:33;;;;;;;12.57;11.27;;;;;;;;;;5094905;28;20224;-60
2020/12/17 07:14:01;;;;;;;13.80;10.65;;;;;;;;;;5094258;28;20653;-61
2020/12/17 07:16:28;;;;;;;13.20;11.00;;;;;;;;;;5094300;28;20192;-60
2020/12/17 07:19:09;;;;;;;13.38;11.30;;;;;;;;;;5094833;28;20203;-61
2020/12/17 07:21:37;;;;;;;13.82;12.13;;;;;;;;;;5099012;28;20289;-60
2020/12/17 07:24:06;;;;;;;15.13;12.40;;;;;;;;;;5096800;28;20211;-60
2020/12/17 07:26:34;;;;;;;15.85;12.65;;;;;;;;;;5096326;28;20227;-59
2020/12/17 07:29:01;;;;;;;13.50;11.38;;;;;;;;;;5095897;28;20686;-61
2020/12/17 07:31:28;;;;;;;13.93;11.60;;;;;;;;;;5096034;28;20216;-61
2020/12/17 07:33:56;;;;;;;14.77;11.50;;;;;;;;;;5096537;28;20238;-62
2020/12/17 07:36:37;;;;;;;15.52;11.85;;;;;;;;;;5098404;28;20253;-62
2020/12/17 07:39:08;;;;;;;17.15;13.52;;;;;;;;;;5096963;28;20207;-61
2020/12/17 07:41:34;;;;;;;14.80;11.45;;;;;;;;;;5094394;28;20220;-60
2020/12/17 07:44:02;;;;;;;14.85;11.65;;;;;;;;;;5094032;28;20668;-61
2020/12/17 07:46:36;;;;;;;13.02;11.57;;;;;;;;;;5094618;28;20261;-60
2020/12/17 07:49:03;;;;;;;13.43;11.80;;;;;;;;;;5095175;28;20207;-61
2020/12/17 07:51:35;;;;;;;14.77;11.30;;;;;;;;;;5094040;28;20220;-61
2020/12/17 07:54:03;;;;;;;16.15;11.73;;;;;;;;;;5094265;28;20200;-61
2020/12/17 07:56:30;;;;;;;14.95;11.57;;;;;;;;;;5093887;28;20569;-61
2020/12/17 07:58:57;;;;;;;12.00;10.73;;;;;;;;;;5093513;28;20200;-61
2020/12/17 08:01:25;;;;;;;14.27;11.88;;;;;;;;;;5093677;28;20216;-61
2020/12/17 08:03:52;;;;;;;13.98;11.30;;;;;;;;;;5093336;28;20201;-61
2020/12/17 08:06:19;;;;;;;16.23;11.48;;;;;;;;;;5093040;28;20711;-60
2020/12/17 08:08:46;;;;;;;14.63;12.23;;;;;;;;;;5093184;28;20204;-61
2020/12/17 08:11:12;;;;;;;17.75;11.77;;;;;;;;;;5093067;28;20825;-61
2020/12/17 08:13:40;;;;;;;11.30;9.73;;;;;;;;;;5092848;28;20205;-60
2020/12/17 08:16:07;;;;;;;15.43;11.65;;;;;;;;;;5092879;28;20726;-61
2020/12/17 08:18:35;;;;;;;13.77;10.48;;;;;;;;;;5093191;28;20204;-62
2020/12/17 08:21:03;;;;;;;14.43;11.73;;;;;;;;;;5092960;28;20220;-61
2020/12/17 08:23:30;;;;;;;13.82;11.00;;;;;;;;;;5092933;28;20201;-63
2020/12/17 08:25:59;;;;;;;14.05;10.80;;;;;;;;;;5093100;28;20212;-62
2020/12/17 08:28:28;;;;;;;12.35;11.10;;;;;;;;;;5093323;28;20196;-62
2020/12/17 08:31:01;;;;;;;14.43;11.70;;;;;;;;;;5092908;28;20270;-60
2020/12/17 08:33:28;;;;;;;14.90;11.18;;;;;;;;;;5093191;28;20185;-62
2020/12/17 08:36:01;;;;;;;14.65;11.30;;;;;;;;;;5092878;28;20245;-61
2020/12/17 08:38:28;;;;;;;13.02;10.95;;;;;;;;;;5093103;28;20558;-60
2020/12/17 08:40:56;;;;;;;15.90;11.20;;;;;;;;;;5092712;28;20779;-61
2020/12/17 08:43:25;;;;;;;13.27;10.90;;;;;;;;;;5093363;28;20277;-62
2020/12/17 08:45:54;;;;;;;16.95;11.57;;;;;;;;;;5092685;28;20571;-60
2020/12/17 08:48:21;;;;;;;14.63;11.75;;;;;;;;;;5092899;28;20581;-60
2020/12/17 08:50:49;;;;;;;15.63;11.43;;;;;;;;;;5091730;28;20260;-62
2020/12/17 08:53:20;;;;;;;13.73;11.43;;;;;;;;;;5095412;28;20568;-61
2020/12/17 08:56:00;;;;;;;12.35;10.40;;;;;;;;;;5098760;28;20249;-61
2020/12/17 08:58:28;;;;;;;14.65;12.68;;;;;;;;;;5097742;28;20216;-62
2020/12/17 09:00:54;;;;;;;13.25;10.95;;;;;;;;;;5099406;28;20303;-62
2020/12/17 09:03:22;;;;;;;13.50;12.10;;;;;;;;;;5101822;28;20680;-62
2020/12/17 09:06:01;;;;;;;14.20;10.68;;;;;;;;;;5100480;28;20691;-61
2020/12/17 09:08:28;;;;;;;14.30;11.70;;;;;;;;;;5097897;28;20238;-62
2020/12/17 09:10:55;;;;;;;14.05;10.40;;;;;;;;;;5097655;28;20704;-61
2020/12/17 09:13:22;;;;;;;13.02;11.07;;;;;;;;;;5097446;28;20242;-60
2020/12/17 09:15:58;;;;;;;16.15;11.05;;;;;;;;;;5096915;28;20192;-60
2020/12/17 09:18:24;;;;;;;14.35;11.20;;;;;;;;;;5097431;28;20188;-61
2020/12/17 09:21:05;;;;;;;12.30;10.50;;;;;;;;;;5097681;28;20221;-62
2020/12/17 09:23:33;;;;;;;13.68;12.13;;;;;;;;;;5099278;28;20701;-60
2020/12/17 09:26:10;;;;;;;12.57;10.45;;;;;;;;;;5096738;28;20365;-60
2020/12/17 09:28:37;;;;;;;13.00;11.10;;;;;;;;;;5097082;28;20256;-61
2020/12/17 09:31:04;;;;;;;13.30;11.10;;;;;;;;;;5096561;28;20220;-59
2020/12/17 09:33:31;;;;;;;15.65;11.20;;;;;;;;;;5096573;28;20204;-61
2020/12/17 09:35:57;;;;;;;14.20;11.43;;;;;;;;;;5097119;28;20200;-64
2020/12/17 09:38:24;;;;;;;14.15;10.23;;;;;;;;;;5097051;28;20238;-61
2020/12/17 09:40:54;;;;;;;13.98;10.63;;;;;;;;;;5097212;28;20224;-62
2020/12/17 09:43:21;;;;;;;13.25;11.05;;;;;;;;;;5096229;28;20227;-61
2020/12/17 09:45:49;;;;;;;12.13;10.07;;;;;;;;;;5096279;28;20212;-62
2020/12/17 09:48:17;;;;;;;16.30;12.05;;;;;;;;;;5096540;28;20196;-61
2020/12/17 09:50:53;;;;;;;12.10;10.85;;;;;;;;;;5096004;28;20312;-62
2020/12/17 09:53:21;;;;;;;14.37;11.73;;;;;;;;;;5096391;28;20195;-61
2020/12/17 09:55:48;;;;;;;13.50;11.10;;;;;;;;;;5096325;28;20577;-62
2020/12/17 09:58:16;;;;;;;13.20;11.73;;;;;;;;;;5096509;28;20200;-63
2020/12/17 10:00:43;;;;;;;11.88;10.23;;;;;;;;;;5096664;28;20221;-60
2020/12/17 10:03:10;;;;;;;14.10;12.00;;;;;;;;;;5095592;28;20690;-62
2020/12/17 10:05:37;;;;;;;12.90;11.35;;;;;;;;;;5095522;28;20212;-63
2020/12/17 10:08:03;;;;;;;14.88;11.35;;;;;;;;;;5096334;28;20208;-63
2020/12/17 10:10:30;;;;;;;12.43;11.00;;;;;;;;;;5096045;28;20224;-60
2020/12/17 10:12:58;;;;;;;16.03;12.13;;;;;;;;;;5096438;28;20269;-61
2020/12/17 10:15:26;;;;;;;12.90;10.52;;;;;;;;;;5096156;28;20887;-59
2020/12/17 10:17:53;;;;;;;11.38;10.20;;;;;;;;;;5095400;28;20676;-61
2020/12/17 10:20:21;;;;;;;12.98;11.50;;;;;;;;;;5095554;28;20220;-62
2020/12/17 10:22:48;;;;;;;14.80;11.37;;;;;;;;;;5095541;28;20204;-62
2020/12/17 10:25:15;;;;;;;13.17;11.27;;;;;;;;;;5095363;28;20445;-62
2020/12/17 10:27:41;;;;;;;12.13;10.50;;;;;;;;;;5095323;28;20485;-62
2020/12/17 10:30:08;;;;;;;14.77;11.30;;;;;;;;;;5095483;28;20224;-61
2020/12/17 10:32:37;;;;;;;19.63;11.80;;;;;;;;;;5096060;28;20200;-62
2020/12/17 10:35:05;;;;;;;14.87;13.00;;;;;;;;;;5096493;28;20465;-59
2020/12/17 10:37:32;;;;;;;13.77;11.67;;;;;;;;;;5097235;28;20446;-61
2020/12/17 10:39:59;;;;;;;13.13;11.82;;;;;;;;;;5098158;28;20465;-61
2020/12/17 10:42:25;;;;;;;15.70;12.27;;;;;;;;;;5101157;28;20203;-61
2020/12/17 10:44:52;;;;;;;15.40;12.30;;;;;;;;;;5099098;28;20207;-62
2020/12/17 10:47:19;;;;;;;16.90;13.82;;;;;;;;;;5096349;28;20220;-61
2020/12/17 10:49:47;;;;;;;14.70;12.73;;;;;;;;;;5096237;28;20199;-61
2020/12/17 10:52:14;;;;;;;13.60;12.20;;;;;;;;;;5097474;28;20268;-59
2020/12/17 10:54:40;;;;;;;14.97;12.23;;;;;;;;;;5097699;28;20848;-62
2020/12/17 10:57:07;;;;;;;13.75;12.15;;;;;;;;;;5098086;28;20443;-62
2020/12/17 10:59:34;;;;;;;14.43;11.73;;;;;;;;;;5096632;28;20211;-62
2020/12/17 11:02:01;;;;;;;16.60;12.35;;;;;;;;;;5097575;28;20215;-62
2020/12/17 11:04:28;;;;;;;15.95;12.35;;;;;;;;;;5097357;28;20229;-62
2020/12/17 11:06:56;;;;;;;16.30;12.40;;;;;;;;;;5097015;28;20216;-62
2020/12/17 11:09:23;;;;;;;13.57;12.20;;;;;;;;;;5096090;28;20285;-62
2020/12/17 11:11:51;;;;;;;16.27;13.07;;;;;;;;;;5097460;28;20458;-61
2020/12/17 11:14:18;;;;;;;14.70;13.07;;;;;;;;;;5099408;28;20537;-60
2020/12/17 11:16:45;;;;;;;14.50;12.73;;;;;;;;;;5096259;28;20492;-61
2020/12/17 11:19:12;;;;;;;16.10;12.45;;;;;;;;;;5096897;28;20208;-61
2020/12/17 11:21:38;;;;;;;14.15;11.85;;;;;;;;;;5096630;28;20220;-62
2020/12/17 11:24:06;;;;;;;13.13;11.83;;;;;;;;;;5095365;28;20197;-62
2020/12/17 11:26:33;;;;;;;15.53;11.50;;;;;;;;;;5094631;28;20470;-62
2020/12/17 11:28:59;;;;;;;14.20;12.60;;;;;;;;;;5096635;28;20446;-62
2020/12/17 11:31:28;;;;;;;13.05;11.60;;;;;;;;;;5097538;28;20224;-62
2020/12/17 11:33:55;;;;;;;13.98;11.73;;;;;;;;;;5095662;28;20211;-61
2020/12/17 11:36:21;;;;;;;13.98;11.45;;;;;;;;;;5096527;28;20192;-61
2020/12/17 11:38:48;;;;;;;14.60;12.50;;;;;;;;;;5096705;28;20207;-61
2020/12/17 11:41:16;;;;;;;15.60;11.73;;;;;;;;;;5097963;28;20216;-62
2020/12/17 11:43:43;;;;;;;13.88;12.25;;;;;;;;;;5095479;28;20245;-62
2020/12/17 11:46:09;;;;;;;14.30;11.25;;;;;;;;;;5095449;28;20220;-64
2020/12/17 11:48:36;;;;;;;15.82;12.88;;;;;;;;;;5095670;28;20575;-62
2020/12/17 11:51:03;;;;;;;13.38;11.98;;;;;;;;;;5094042;28;20220;-62
2020/12/17 11:53:30;;;;;;;15.85;13.30;;;;;;;;;;5093925;28;20200;-62
2020/12/17 11:55:58;;;;;;;12.35;11.15;;;;;;;;;;5094000;28;20251;-62
2020/12/17 11:58:26;;;;;;;15.65;12.88;;;;;;;;;;5093874;28;20235;-61
2020/12/17 12:00:52;;;;;;;11.57;10.37;;;;;;;;;;5095361;28;20626;-65
2020/12/17 12:03:19;;;;;;;14.27;11.60;;;;;;;;;;5093817;28;20472;-61
2020/12/17 12:05:46;;;;;;;12.47;11.13;;;;;;;;;;5093517;28;20219;-62
2020/12/17 12:08:13;;;;;;;14.73;12.40;;;;;;;;;;5093165;28;20876;-62
2020/12/17 12:10:39;;;;;;;14.30;11.20;;;;;;;;;;5093209;28;20220;-62
2020/12/17 12:13:06;;;;;;;14.47;11.63;;;;;;;;;;5093194;28;20810;-61
2020/12/17 12:15:36;;;;;;;12.47;10.70;;;;;;;;;;5093775;28;20971;-62
2020/12/17 12:18:03;;;;;;;13.03;10.37;;;;;;;;;;5093449;28;20525;-63
2020/12/17 12:20:30;;;;;;;12.13;9.67;;;;;;;;;;5093174;28;20802;-60
2020/12/17 12:22:58;;;;;;;13.50;10.37;;;;;;;;;;5093426;28;20955;-62
2020/12/17 12:25:25;;;;;;;15.80;9.40;;;;;;;;;;5093850;28;20447;-62
2020/12/17 12:27:52;;;;;;;10.50;9.40;;;;;;;;;;5095680;28;20477;-61
2020/12/17 12:30:18;;;;;;;14.07;9.67;;;;;;;;;;5098264;28;20469;-62
2020/12/17 12:32:46;;;;;;;11.40;10.20;;;;;;;;;;5098010;28;20453;-60
2020/12/17 12:35:13;;;;;;;9.33;8.43;;;;;;;;;;5098011;28;20445;-61
2020/12/17 12:37:40;;;;;;;11.07;9.40;;;;;;;;;;5097864;28;20441;-61
2020/12/17 12:40:06;;;;;;;10.10;9.10;;;;;;;;;;5097661;28;20516;-62
2020/12/17 12:42:33;;;;;;;9.97;7.80;;;;;;;;;;5097269;28;20449;-59
2020/12/17 12:45:00;;;;;;;8.73;7.67;;;;;;;;;;5097519;28;20446;-61
2020/12/17 12:47:27;;;;;;;10.37;7.80;;;;;;;;;;5097411;28;20989;-61
2020/12/17 12:49:54;;;;;;;8.73;7.60;;;;;;;;;;5097120;28;20875;-62
2020/12/17 12:52:21;;;;;;;7.53;6.60;;;;;;;;;;5098051;28;20453;-63
2020/12/17 12:54:48;;;;;;;8.10;5.73;;;;;;;;;;5097461;28;20465;-61
2020/12/17 12:57:14;;;;;;;7.83;6.80;;;;;;;;;;5096828;28;20991;-60
2020/12/17 12:59:41;;;;;;;7.37;6.77;;;;;;;;;;5100687;28;20457;-60
2020/12/17 13:02:08;;;;;;;6.93;6.00;;;;;;;;;;5101241;28;20458;-61
2020/12/17 13:04:35;;;;;;;6.17;5.63;;;;;;;;;;5102437;28;20449;-62
2020/12/17 13:07:02;;;;;;;6.50;5.93;;;;;;;;;;5102858;28;20481;-61
2020/12/17 13:09:29;;;;;;;6.50;5.90;;;;;;;;;;5099799;28;20450;-61
2020/12/17 13:11:56;;;;;;;6.83;6.23;;;;;;;;;;5098615;28;20462;-61
2020/12/17 13:14:23;;;;;;;6.97;6.47;;;;;;;;;;5098727;28;20443;-62
2020/12/17 13:16:50;;;;;;;5.67;5.27;;;;;;;;;;5097573;28;20438;-61
2020/12/17 13:19:16;;;;;;;4.90;4.50;;;;;;;;;;5096783;28;20452;-62
2020/12/17 13:21:43;;;;;;;5.33;4.93;;;;;;;;;;5096633;28;20492;-62
2020/12/17 13:24:11;;;;;;;11.20;9.27;;;;;;;;;;5097340;28;20442;-61
2020/12/17 13:26:38;;;;;;;5.90;5.50;;;;;;;;;;5100914;28;20470;-61
2020/12/17 13:29:04;;;;;;;6.67;5.10;;;;;;;;;;5101935;28;20449;-60
2020/12/17 13:31:32;;;;;;;5.97;5.47;;;;;;;;;;5099190;28;20528;-60
2020/12/17 13:33:59;;;;;;;5.37;4.97;;;;;;;;;;5098570;28;20958;-61
2020/12/17 13:36:25;;;;;;;4.93;4.40;;;;;;;;;;5097561;28;20812;-60
2020/12/17 13:38:52;;;;;;;7.33;5.07;;;;;;;;;;5097406;28;20442;-60
2020/12/17 13:41:20;;;;;;;5.10;4.70;;;;;;;;;;5100013;28;20798;-61
2020/12/17 13:43:46;;;;;;;4.77;4.20;;;;;;;;;;5098660;28;20454;-60
2020/12/17 13:46:13;;;;;;;4.53;4.23;;;;;;;;;;5098408;28;20457;-60
2020/12/17 13:48:40;;;;;;;5.57;5.00;;;;;;;;;;5100257;28;20515;-61
2020/12/17 13:51:07;;;;;;;5.27;4.77;;;;;;;;;;5102515;28;20478;-61
2020/12/17 13:53:34;;;;;;;4.77;4.20;;;;;;;;;;5100222;28;20453;-61
2020/12/17 13:56:01;;;;;;;4.40;4.00;;;;;;;;;;5100859;28;20446;-61
2020/12/17 13:58:28;;;;;;;4.97;4.50;;;;;;;;;;5099929;28;20443;-62
2020/12/17 14:00:55;;;;;;;4.50;4.20;;;;;;;;;;5100580;28;20466;-62
2020/12/17 14:03:22;;;;;;;4.20;3.90;;;;;;;;;;5099649;28;20474;-62
2020/12/17 14:05:49;;;;;;;4.57;3.63;;;;;;;;;;5097106;28;20454;-61
2020/12/17 14:08:16;;;;;;;4.70;4.17;;;;;;;;;;5096742;28;20842;-62
2020/12/17 14:10:44;;;;;;;4.20;3.90;;;;;;;;;;5098029;28;20562;-62
2020/12/17 14:13:10;;;;;;;4.53;3.43;;;;;;;;;;5097757;28;20854;-62
2020/12/17 14:15:38;;;;;;;5.20;4.20;;;;;;;;;;5096248;28;20957;-62
2020/12/17 14:18:05;;;;;;;4.50;4.20;;;;;;;;;;5096062;28;20487;-61
2020/12/17 14:20:32;;;;;;;4.13;3.73;;;;;;;;;;5096442;28;20462;-61
2020/12/17 14:22:59;;;;;;;4.00;3.60;;;;;;;;;;5095764;28;20438;-61
2020/12/17 14:25:25;;;;;;;5.00;4.17;;;;;;;;;;5095710;28;20446;-61